Time;durP1;ratioP1;P1;durP2;ratioP2;P2;SDS_P1;SDS_P2;PMS_P1;PMS_P2;Temp;Humidity;BMP_temperature;BMP_pressure;BME280_temperature;BME280_humidity;BME280_pressure;Samples;Min_cycle;Max_cycle;Signal;HPM_P1;HPM_P2
2022/06/03 00:01:52;;;;;;;;;4.75;4.00;;;;;21.95;32.61;101036.94;4979786;28;45841;-55
2022/06/03 00:04:57;;;;;;;;;5.00;4.00;;;;;21.93;32.55;101037.88;4995205;28;45372;-52
2022/06/03 00:07:42;;;;;;;;;4.25;4.25;;;;;21.93;32.83;101039.69;4958999;28;45414;-54
2022/06/03 00:10:26;;;;;;;;;3.00;3.00;;;;;21.96;32.80;101033.38;4979541;28;46467;-49
2022/06/03 00:13:45;;;;;;;;;4.75;4.00;;;;;21.94;32.76;101017.59;4979862;28;45454;-46
2022/06/03 00:16:35;;;;;;;;;3.00;3.00;;;;;21.93;32.49;101014.13;4957822;28;45334;-49
2022/06/03 00:19:37;;;;;;;;;4.75;4.00;;;;;21.93;32.69;101013.28;4978653;28;45389;-52
2022/06/03 00:22:22;;;;;;;;;3.75;3.75;;;;;21.93;32.55;101016.78;4979413;28;45413;-53
2022/06/03 00:24:58;;;;;;;;;4.75;4.75;;;;;21.92;32.47;101017.72;4979449;28;45254;-49
2022/06/03 00:27:35;;;;;;;;;3.50;3.50;;;;;21.92;32.68;101009.78;4979696;28;45483;-48
2022/06/03 00:30:07;;;;;;;;;7.75;5.25;;;;;21.92;32.51;101012.44;4979627;28;45321;-53
2022/06/03 00:33:02;;;;;;;;;4.25;4.25;;;;;21.92;32.98;101020.34;4979106;28;47016;-50
2022/06/03 00:35:50;;;;;;;;;5.25;3.50;;;;;21.92;32.86;101012.44;4979271;28;45495;-51
2022/06/03 00:38:27;;;;;;;;;4.00;4.00;;;;;21.93;32.94;101014.13;4979367;28;45419;-53
2022/06/03 00:40:58;;;;;;;;;5.00;5.00;;;;;21.93;32.93;101008.84;4979739;28;45428;-55
2022/06/03 00:43:48;;;;;;;;;4.50;4.50;;;;;21.93;32.66;101008.84;4979353;28;46350;-47
2022/06/03 00:46:20;;;;;;;;;5.25;5.00;;;;;21.93;32.69;101013.28;4979005;28;45315;-52
2022/06/03 00:48:56;;;;;;;;;3.50;3.50;;;;;21.92;32.85;101007.16;4979241;28;45557;-53
2022/06/03 00:51:39;;;;;;;;;5.00;5.00;;;;;21.93;32.83;101008.84;4979643;28;45296;-50
2022/06/03 00:54:42;;;;;;;;;5.00;4.00;;;;;21.93;33.09;101011.50;4993989;28;48442;-53
2022/06/03 00:57:21;;;;;;;;;5.00;4.00;;;;;21.93;33.08;101013.28;4978833;28;45905;-44
2022/06/03 01:00:04;;;;;;;;;5.25;3.75;;;;;21.93;32.73;101016.78;4979227;28;45344;-45
2022/06/03 01:02:44;;;;;;;;;5.00;5.00;;;;;21.93;33.00;101024.69;4979289;28;45455;-44
2022/06/03 01:05:48;;;;;;;;;5.75;4.00;;;;;21.93;32.82;101014.13;4978792;28;45931;-49
2022/06/03 01:08:25;;;;;;;;;4.50;4.00;;;;;21.93;33.15;101016.78;4978767;28;45732;-45
2022/06/03 01:10:59;;;;;;;;;4.50;4.50;;;;;21.92;32.67;101022.16;4979228;28;45356;-45
2022/06/03 01:13:58;;;;;;;;;4.00;4.00;;;;;21.93;33.06;101008.84;4994373;28;45246;-46
2022/06/03 01:16:45;;;;;;;;;4.25;4.25;;;;;21.93;32.96;101010.66;4978892;28;45369;-45
2022/06/03 01:19:37;;;;;;;;;4.75;4.75;;;;;21.93;32.96;101008.84;4978749;28;45332;-45
2022/06/03 01:22:21;;;;;;;;;4.50;4.00;;;;;21.93;33.13;101011.50;4978722;28;45317;-49
2022/06/03 01:25:18;;;;;;;;;4.00;4.00;;;;;21.91;32.84;101013.38;4978883;28;45251;-50
2022/06/03 01:28:11;;;;;;;;;6.50;4.75;;;;;21.91;32.94;101005.44;4978430;28;45511;-51
2022/06/03 01:31:13;;;;;;;;;3.00;3.00;;;;;21.91;33.28;101010.72;4978563;28;45286;-53
2022/06/03 01:33:56;;;;;;;;;6.00;5.00;;;;;21.91;33.21;101004.63;4978650;28;45410;-51
2022/06/03 01:36:52;;;;;;;;;4.25;3.75;;;;;21.91;33.18;101002.81;4978838;28;45356;-47
2022/06/03 01:39:24;;;;;;;;;5.00;4.50;;;;;21.92;32.84;101006.31;4978272;28;45438;-44
2022/06/03 01:42:15;;;;;;;;;3.75;3.75;;;;;21.91;33.23;101005.44;4993197;28;45318;-43
2022/06/03 01:45:20;;;;;;;;;4.25;4.00;;;;;21.90;33.04;101009.03;4978371;28;45225;-46
2022/06/03 01:48:03;;;;;;;;;6.25;4.75;;;;;21.91;33.04;100999.34;4966985;28;45417;-48
2022/06/03 01:51:05;;;;;;;;;5.00;5.00;;;;;21.90;33.07;100993.19;4978154;28;46130;-47
2022/06/03 01:54:06;;;;;;;;;4.50;4.00;;;;;21.90;32.67;100977.34;4978014;28;45393;-51
2022/06/03 01:56:44;;;;;;;;;4.00;4.00;;;;;21.91;32.89;100980.88;4978107;28;45328;-47
2022/06/03 01:59:36;;;;;;;;;6.00;5.00;;;;;21.90;33.08;100979.16;4978249;28;45431;-48
2022/06/03 02:02:39;;;;;;;;;4.00;4.00;;;;;21.89;33.15;100974.81;4977679;28;46287;-45
2022/06/03 02:05:27;;;;;;;;;4.00;4.00;;;;;21.89;33.26;100986.22;4977976;28;45720;-52
2022/06/03 02:08:23;;;;;;;;;4.00;4.00;;;;;21.89;33.20;100973.03;4976885;28;45324;-53
2022/06/03 02:11:00;;;;;;;;;4.00;4.00;;;;;21.89;33.61;100970.38;4978242;28;45486;-48
2022/06/03 02:13:43;;;;;;;;;4.00;4.00;;;;;21.88;32.98;100958.13;4978210;28;45392;-52
2022/06/03 02:16:27;;;;;;;;;4.25;4.00;;;;;21.89;33.30;100957.19;4977719;28;45362;-48
2022/06/03 02:19:23;;;;;;;;;4.00;4.00;;;;;21.89;33.28;100953.72;4993022;28;45298;-50
2022/06/03 02:21:57;;;;;;;;;4.50;3.50;;;;;21.88;33.07;100944.09;4977990;28;45401;-51
2022/06/03 02:24:48;;;;;;;;;4.00;4.00;;;;;21.88;33.03;100936.19;4977623;28;46763;-52
2022/06/03 02:27:44;;;;;;;;;5.00;5.00;;;;;21.88;33.18;100936.19;4977656;28;45290;-55
2022/06/03 02:30:34;;;;;;;;;4.00;4.00;;;;;21.87;33.08;100934.47;4977794;28;45348;-50
2022/06/03 02:33:24;;;;;;;;;6.00;4.00;;;;;21.87;33.41;100931.84;4978025;28;45664;-51
2022/06/03 02:36:16;;;;;;;;;4.25;4.25;;;;;21.87;33.50;100924.78;4977364;28;45288;-52
2022/06/03 02:39:06;;;;;;;;;4.00;4.00;;;;;21.86;33.51;100931.00;4977480;28;45423;-50
2022/06/03 02:42:10;;;;;;;;;3.00;3.00;;;;;21.87;33.61;100923.94;4977620;28;45230;-51
2022/06/03 02:45:01;;;;;;;;;3.00;3.00;;;;;21.87;33.10;100926.56;4977582;28;45303;-52
2022/06/03 02:47:50;;;;;;;;;4.00;4.00;;;;;21.86;33.73;100920.44;4977103;28;46912;-53
2022/06/03 02:50:32;;;;;;;;;5.00;3.25;;;;;21.86;33.49;100928.38;4977098;28;45185;-52
2022/06/03 02:53:03;;;;;;;;;4.00;4.00;;;;;21.86;33.33;100923.09;4977697;28;45415;-46
2022/06/03 02:56:04;;;;;;;;;3.50;3.50;;;;;21.86;33.30;100917.81;4977911;28;45324;-52
2022/06/03 02:59:06;;;;;;;;;5.00;5.00;;;;;21.86;33.75;100912.53;4977075;28;46030;-53
2022/06/03 03:01:56;;;;;;;;;4.00;3.25;;;;;21.85;33.35;100913.47;4977126;28;45356;-46
2022/06/03 03:04:47;;;;;;;;;4.00;3.25;;;;;21.86;33.25;100915.19;4977342;28;45327;-48
2022/06/03 03:07:43;;;;;;;;;3.75;3.75;;;;;21.86;33.57;100912.53;4968691;28;45306;-50
2022/06/03 03:10:45;;;;;;;;;4.00;4.00;;;;;21.86;33.63;100909.03;4976896;28;45382;-51
2022/06/03 03:13:32;;;;;;;;;5.00;3.75;;;;;21.86;33.70;100909.03;4977022;28;45428;-47
2022/06/03 03:16:36;;;;;;;;;5.00;4.00;;;;;21.84;33.58;100911.78;4976287;28;45807;-52
2022/06/03 03:19:23;;;;;;;;;4.00;4.00;;;;;21.85;33.36;100916.13;4977315;28;45405;-54
2022/06/03 03:22:18;;;;;;;;;5.75;4.00;;;;;21.85;33.67;100916.13;4991903;28;47520;-55
2022/06/03 03:25:03;;;;;;;;;3.00;3.00;;;;;21.85;33.57;100921.38;4976832;28;45277;-52
2022/06/03 03:27:58;;;;;;;;;7.00;4.25;;;;;21.84;33.63;100919.69;4977180;28;45392;-55
2022/06/03 03:30:52;;;;;;;;;4.00;4.00;;;;;21.85;33.64;100917.88;4976940;28;45400;-53
2022/06/03 03:33:26;;;;;;;;;5.00;3.75;;;;;21.85;33.45;100928.44;4968404;28;45768;-51
2022/06/03 03:36:22;;;;;;;;;4.75;4.75;;;;;21.86;33.44;100924.88;4976703;28;45269;-55
2022/06/03 03:39:24;;;;;;;;;5.75;4.00;;;;;21.85;33.51;100921.38;4976734;28;45396;-55
2022/06/03 03:42:08;;;;;;;;;3.25;3.25;;;;;21.84;33.92;100914.41;4976916;28;45429;-51
2022/06/03 03:44:33;;;;;;;;;4.00;4.00;;;;;21.85;33.50;100912.59;4976780;28;45465;-51
2022/06/03 03:47:10;;;;;;;;;4.00;3.75;;;;;21.84;33.69;100909.13;4976525;28;45652;-52
2022/06/03 03:50:00;;;;;;;;;4.00;4.00;;;;;21.83;33.83;100904.78;4976722;28;45364;-46
2022/06/03 03:52:46;;;;;;;;;4.00;3.75;;;;;21.83;33.76;100904.78;4991803;28;45261;-49
2022/06/03 03:55:29;;;;;;;;;4.50;4.00;;;;;21.83;33.67;100904.78;4976467;28;45456;-54
2022/06/03 03:58:25;;;;;;;;;3.50;3.50;;;;;21.84;33.64;100909.13;4976337;28;45825;-49
2022/06/03 04:00:59;;;;;;;;;4.00;3.00;;;;;21.84;33.81;100909.13;4976397;28;45230;-51
2022/06/03 04:03:27;;;;;;;;;3.75;3.75;;;;;21.83;33.69;100903.97;4976573;28;45381;-53
2022/06/03 04:06:26;;;;;;;;;4.00;4.00;;;;;21.83;33.76;100910.06;4976068;28;45365;-48
2022/06/03 04:09:29;;;;;;;;;5.00;3.25;;;;;21.85;34.09;100916.13;4976075;28;45266;-53
2022/06/03 04:12:34;;;;;;;;;4.25;4.25;;;;;21.85;34.12;100916.13;4976422;28;45424;-51
2022/06/03 04:15:05;;;;;;;;;5.25;4.25;;;;;21.86;33.79;100907.25;4976444;28;45487;-50
2022/06/03 04:18:22;;;;;;;;;6.25;3.25;;;;;21.86;34.28;100909.03;4976416;28;45252;-49
2022/06/03 04:21:15;;;;;;;;;4.25;4.25;;;;;21.86;33.87;100916.94;4976104;28;45313;-50
2022/06/03 04:24:05;;;;;;;;;4.75;3.25;;;;;21.85;33.68;100916.13;4976326;28;45269;-51
2022/06/03 04:26:40;;;;;;;;;3.75;3.75;;;;;21.86;34.16;100917.81;4976249;28;45530;-53
2022/06/03 04:29:34;;;;;;;;;5.00;4.50;;;;;21.84;34.15;100909.13;4976327;28;45324;-53
2022/06/03 04:32:15;;;;;;;;;5.25;4.00;;;;;21.84;33.97;100906.50;4979217;28;45345;-50
2022/06/03 04:34:46;;;;;;;;;5.00;3.75;;;;;21.83;34.01;100910.06;4979160;28;45336;-47
2022/06/03 04:37:26;;;;;;;;;4.50;4.50;;;;;21.83;33.94;100911.88;4979554;28;45325;-50
2022/06/03 04:40:04;;;;;;;;;5.75;5.75;;;;;21.82;34.16;100910.19;4979040;28;45345;-51
2022/06/03 04:43:08;;;;;;;;;4.75;4.75;;;;;21.80;34.23;100918.16;4978866;28;45341;-55
2022/06/03 04:45:51;;;;;;;;;5.00;5.00;;;;;21.78;33.97;100915.63;4969306;28;45523;-48
2022/06/03 04:48:54;;;;;;;;;5.00;4.25;;;;;21.75;33.98;100921.06;4978737;28;45560;-53
2022/06/03 04:51:50;;;;;;;;;6.00;6.00;;;;;21.71;33.88;100924.00;4978806;28;46300;-53
2022/06/03 04:54:40;;;;;;;;;5.75;5.00;;;;;21.66;34.24;100921.63;4978575;28;45395;-53
2022/06/03 04:57:24;;;;;;;;;5.00;5.00;;;;;21.61;34.16;100928.94;4979310;28;45518;-47
2022/06/03 05:00:08;;;;;;;;;5.00;5.00;;;;;21.56;34.31;100931.81;4979062;28;45352;-51
2022/06/03 05:02:53;;;;;;;;;4.25;4.25;;;;;21.53;34.32;100929.38;4979027;28;46359;-51
2022/06/03 05:05:37;;;;;;;;;6.00;4.50;;;;;21.51;34.37;100933.91;4978601;28;45250;-52
2022/06/03 05:08:17;;;;;;;;;5.50;5.50;;;;;21.49;34.47;100927.84;4978765;28;45404;-49
2022/06/03 05:11:20;;;;;;;;;5.00;5.00;;;;;21.46;34.51;100922.75;4978962;28;45404;-51
2022/06/03 05:14:32;;;;;;;;;5.00;5.00;;;;;21.46;34.38;100920.09;4978408;28;45415;-47
2022/06/03 05:17:37;;;;;;;;;6.75;5.25;;;;;21.43;34.66;100912.41;4978493;28;45790;-50
2022/06/03 05:20:05;;;;;;;;;5.00;5.00;;;;;21.42;34.71;100914.16;4978639;28;45369;-46
2022/06/03 05:23:01;;;;;;;;;5.25;4.00;;;;;21.41;34.67;100922.19;4978724;28;45538;-54
2022/06/03 05:25:54;;;;;;;;;4.25;4.25;;;;;21.39;34.79;100924.88;4978240;28;46683;-47
2022/06/03 05:28:29;;;;;;;;;6.25;5.25;;;;;21.38;34.59;100932.91;4978075;28;46057;-48
2022/06/03 05:31:15;;;;;;;;;5.75;5.50;;;;;21.37;34.76;100920.66;4978396;28;45399;-51
2022/06/03 05:34:10;;;;;;;;;3.50;3.50;;;;;21.36;35.03;100917.19;4978404;28;45486;-48
2022/06/03 05:37:13;;;;;;;;;5.00;5.00;;;;;21.36;35.08;100913.66;4978340;28;46289;-49
2022/06/03 05:39:54;;;;;;;;;5.00;5.00;;;;;21.36;35.06;100911.91;4978535;28;45344;-50
2022/06/03 05:42:36;;;;;;;;;5.50;5.50;;;;;21.37;35.20;100910.09;4976921;28;45318;-51
2022/06/03 05:45:07;;;;;;;;;7.00;6.75;;;;;21.38;34.79;100912.66;4978418;28;45424;-48
2022/06/03 05:47:45;;;;;;;;;4.00;4.00;;;;;21.40;35.12;100909.94;4977601;28;46453;-52
2022/06/03 05:50:20;;;;;;;;;5.00;5.00;;;;;21.41;35.27;100906.38;4977948;28;45496;-45
2022/06/03 05:53:00;;;;;;;;;4.25;4.25;;;;;21.41;34.98;100898.44;4977930;28;45321;-44
2022/06/03 05:55:40;;;;;;;;;6.00;6.00;;;;;21.42;35.45;100893.06;4978198;28;45225;-44
2022/06/03 05:58:24;;;;;;;;;6.00;5.25;;;;;21.43;35.36;100894.78;4978003;28;46064;-46
2022/06/03 06:01:19;;;;;;;;;6.50;6.00;;;;;21.46;35.14;100893.75;4992925;28;45835;-49
2022/06/03 06:03:59;;;;;;;;;5.00;5.00;;;;;21.48;35.42;100897.13;4977907;28;45321;-46
2022/06/03 06:06:35;;;;;;;;;8.25;7.25;;;;;21.49;35.41;100900.66;4977745;28;45500;-48
2022/06/03 06:09:23;;;;;;;;;8.25;5.00;;;;;21.50;35.76;100910.25;4977678;28;45428;-48
2022/06/03 06:12:13;;;;;;;;;7.50;6.00;;;;;21.50;35.66;100905.81;4977774;28;45194;-44
2022/06/03 06:14:57;;;;;;;;;5.25;5.25;;;;;21.50;35.38;100905.81;4977961;28;45342;-46
2022/06/03 06:17:40;;;;;;;;;7.00;6.00;;;;;21.51;35.73;100904.88;4977761;28;45579;-45
2022/06/03 06:20:21;;;;;;;;;7.75;7.75;;;;;21.51;35.54;100907.53;4977376;28;45344;-48
2022/06/03 06:22:49;;;;;;;;;8.75;7.00;;;;;21.53;36.00;100899.50;4977288;28;45810;-45
2022/06/03 06:25:37;;;;;;;;;8.50;7.00;;;;;21.53;36.23;100912.69;4992787;28;45415;-45
2022/06/03 06:28:43;;;;;;;;;6.25;5.00;;;;;21.54;36.11;100909.97;4977340;28;45294;-48
2022/06/03 06:31:24;;;;;;;;;8.50;7.75;;;;;21.53;35.85;100905.66;4977466;28;46153;-47
2022/06/03 06:34:27;;;;;;;;;6.00;6.00;;;;;21.54;36.26;100896.81;4976211;28;45476;-46
2022/06/03 06:37:28;;;;;;;;;7.75;7.75;;;;;21.54;36.35;100899.44;4977437;28;45238;-50
2022/06/03 06:39:59;;;;;;;;;8.25;7.00;;;;;21.55;36.26;100901.09;4955918;28;45444;-45
2022/06/03 06:42:51;;;;;;;;;2.75;2.75;;;;;21.55;36.03;100900.28;4973365;28;46392;-48
2022/06/03 06:45:31;;;;;;;;;9.75;7.50;;;;;21.55;36.13;100895.84;4977135;28;45387;-47
2022/06/03 06:48:24;;;;;;;;;9.75;8.00;;;;;21.57;36.54;100895.75;4977046;28;45431;-51
2022/06/03 06:51:05;;;;;;;;;10.00;7.00;;;;;21.56;36.11;100889.63;4992552;28;45539;-48
2022/06/03 06:53:53;;;;;;;;;7.50;5.00;;;;;21.57;36.28;100896.59;4976335;28;46025;-48
2022/06/03 06:56:29;;;;;;;;;8.00;6.00;;;;;21.59;36.25;100892.13;4976951;28;45554;-47
2022/06/03 06:59:01;;;;;;;;;8.75;7.25;;;;;21.57;36.43;100880.78;4977162;28;45677;-47
2022/06/03 07:01:38;;;;;;;;;6.00;6.00;;;;;21.58;36.44;100884.28;4977024;28;45503;-44
2022/06/03 07:04:29;;;;;;;;;7.75;7.00;;;;;21.58;36.40;100887.75;4976467;28;46248;-47
2022/06/03 07:07:05;;;;;;;;;6.50;6.00;;;;;21.58;36.52;100893.03;4976575;28;45258;-46
2022/06/03 07:09:55;;;;;;;;;7.50;6.50;;;;;21.59;36.40;100899.19;4976883;28;45408;-44
2022/06/03 07:12:30;;;;;;;;;7.00;7.00;;;;;21.58;36.54;100887.75;4976786;28;45521;-46
2022/06/03 07:15:10;;;;;;;;;8.25;7.00;;;;;21.61;36.77;100887.59;4976286;28;46115;-44
2022/06/03 07:20:54;;;;;;;;;8.25;8.25;;;;;21.64;36.94;100891.00;4976674;28;45346;-47
2022/06/03 07:23:32;;;;;;;;;7.50;6.75;;;;;21.62;36.90;100886.66;4966161;28;45349;-49
2022/06/03 07:26:09;;;;;;;;;13.25;7.50;;;;;21.64;37.12;100889.22;4976368;28;45383;-47
2022/06/03 07:29:02;;;;;;;;;9.25;9.25;;;;;21.65;37.08;100877.72;4976455;28;45785;-50
2022/06/03 07:31:34;;;;;;;;;8.00;8.00;;;;;21.67;36.85;100880.25;4976592;28;45318;-52
2022/06/03 07:34:45;;;;;;;;;7.00;7.00;;;;;21.69;37.24;100881.88;4976647;28;45378;-50
2022/06/03 07:37:23;;;;;;;;;6.50;6.50;;;;;21.72;37.03;100888.75;4954501;28;45406;-47
2022/06/03 07:40:19;;;;;;;;;9.50;8.00;;;;;21.74;36.74;100892.16;4954042;28;45373;-52
2022/06/03 07:43:02;;;;;;;;;7.75;7.75;;;;;21.75;37.12;100901.78;4970223;28;45512;-46
2022/06/03 07:45:41;;;;;;;;;10.50;7.75;;;;;21.77;37.48;100902.53;4975987;28;45345;-56
2022/06/03 07:48:18;;;;;;;;;8.00;8.00;;;;;21.78;37.20;100909.47;4975110;28;47057;-45
2022/06/03 07:51:04;;;;;;;;;8.50;7.00;;;;;21.81;37.29;100909.31;4976060;28;45336;-47
2022/06/03 07:53:41;;;;;;;;;8.00;8.00;;;;;21.81;37.33;100906.66;4976036;28;45357;-46
2022/06/03 07:56:06;;;;;;;;;10.25;10.25;;;;;21.82;37.30;100895.19;4976153;28;45345;-49
2022/06/03 07:58:37;;;;;;;;;8.25;8.25;;;;;21.83;37.14;100910.06;4974315;28;45400;-44
2022/06/03 08:01:04;;;;;;;;;10.25;6.50;;;;;21.85;37.19;100920.53;4975248;28;45337;-54
2022/06/03 08:03:36;;;;;;;;;6.50;6.50;;;;;21.85;37.46;100909.97;4975991;28;45350;-47
2022/06/03 08:06:05;;;;;;;;;9.25;9.00;;;;;21.87;37.52;100916.00;4978163;28;45415;-46
2022/06/03 08:11:27;;;;;;;;;11.00;8.00;;;;;21.88;37.57;100904.50;4979355;28;45292;-46
2022/06/03 08:13:56;;;;;;;;;8.25;6.00;;;;;21.89;37.79;100899.13;4979240;28;45333;-46
2022/06/03 08:16:30;;;;;;;;;10.50;8.75;;;;;21.91;37.50;100901.69;4979344;28;45509;-50
2022/06/03 08:19:01;;;;;;;;;9.25;9.00;;;;;21.91;37.54;100894.63;4978434;28;46057;-43
2022/06/03 08:21:35;;;;;;;;;7.50;7.00;;;;;21.91;37.67;100905.19;4978530;28;45882;-46
2022/06/03 08:24:02;;;;;;;;;8.25;7.25;;;;;21.92;37.25;100895.50;4994152;28;45245;-48
2022/06/03 08:26:30;;;;;;;;;10.50;7.00;;;;;21.92;37.17;100900.75;4979431;28;46054;-53
2022/06/03 08:29:21;;;;;;;;;6.75;6.00;;;;;21.95;37.57;100905.00;4978544;28;46404;-45
2022/06/03 08:31:48;;;;;;;;;8.50;7.50;;;;;21.95;37.92;100897.91;4986008;28;45746;-50
2022/06/03 08:34:23;;;;;;;;;10.00;8.50;;;;;21.96;37.85;100894.34;4979415;28;45316;-51
2022/06/03 13:21:05;;;;;;;;;7.75;7.75;;;;;22.47;47.99;100922.94;5501392;22;46140;-56
2022/06/03 13:23:32;;;;;;;;;9.00;8.25;;;;;22.48;47.66;100924.66;4999796;28;45415;-57
2022/06/03 13:26:22;;;;;;;;;9.50;8.00;;;;;22.47;47.67;100928.22;5003799;28;45679;-57
2022/06/03 13:28:52;;;;;;;;;9.00;7.25;;;;;22.48;47.64;100927.28;4998353;28;45601;-55
2022/06/03 13:31:47;;;;;;;;;7.25;7.25;;;;;22.48;47.73;100932.56;4997782;28;46317;-56
2022/06/03 13:34:41;;;;;;;;;8.00;8.00;;;;;22.47;47.79;100930.88;4998026;28;45910;-56
2022/06/03 13:37:30;;;;;;;;;9.00;8.00;;;;;22.48;47.70;100931.72;4998040;28;45433;-59
2022/06/03 13:39:55;;;;;;;;;7.25;7.25;;;;;22.46;47.75;100931.81;4998065;28;45252;-58
2022/06/03 13:45:08;;;;;;;;;8.25;7.25;;;;;22.47;47.81;100927.41;4997747;28;45296;-56
2022/06/03 13:47:46;;;;;;;;;6.00;6.00;;;;;22.47;47.66;100920.31;4996465;28;45342;-56
2022/06/03 13:50:14;;;;;;;;;9.75;8.00;;;;;22.46;48.12;100915.97;4998030;28;45470;-56
2022/06/03 13:53:04;;;;;;;;;9.00;6.75;;;;;22.46;48.07;100909.84;4996066;28;46128;-56
2022/06/03 13:55:38;;;;;;;;;6.75;6.75;;;;;22.46;48.39;100902.75;4997739;28;46193;-57
2022/06/03 13:58:18;;;;;;;;;9.50;7.75;;;;;22.46;48.58;100897.47;5002738;28;45366;-56
2022/06/03 14:00:49;;;;;;;;;7.25;7.25;;;;;22.47;48.33;100890.41;4997452;28;45443;-57
2022/06/03 14:03:38;;;;;;;;;9.00;6.25;;;;;22.47;48.04;100885.97;4996678;28;46047;-57
2022/06/03 14:06:12;;;;;;;;;8.00;7.50;;;;;22.48;48.20;100889.47;4997335;28;45929;-57
2022/06/03 14:08:42;;;;;;;;;9.00;8.50;;;;;22.45;48.45;100882.56;4996320;28;45484;-56
2022/06/03 14:11:29;;;;;;;;;9.50;9.00;;;;;22.47;48.31;100885.97;4997227;28;45253;-56
2022/06/03 14:14:09;;;;;;;;;6.75;6.75;;;;;22.47;48.71;100888.63;4997394;28;46943;-57
2022/06/03 14:16:48;;;;;;;;;7.00;7.00;;;;;22.47;48.47;100893.91;5007119;28;45435;-53
2022/06/03 14:19:32;;;;;;;;;7.25;7.25;;;;;22.48;48.51;100892.13;5017013;28;45473;-55
2022/06/03 14:21:59;;;;;;;;;7.00;7.00;;;;;22.47;48.56;100891.25;4977539;28;45407;-54
2022/06/03 14:24:36;;;;;;;;;8.25;7.25;;;;;22.49;48.45;100896.47;4977694;28;46398;-54
2022/06/03 14:27:13;;;;;;;;;7.00;7.00;;;;;22.49;48.52;100896.47;4977333;28;45957;-55
2022/06/03 14:29:43;;;;;;;;;11.25;9.00;;;;;22.48;48.62;100903.53;4976266;28;45460;-51
2022/06/03 14:32:13;;;;;;;;;7.25;7.25;;;;;22.47;48.59;100904.47;4984035;28;45378;-54
2022/06/03 14:34:54;;;;;;;;;7.25;7.25;;;;;22.48;48.81;100900.88;5004951;28;46695;-54
2022/06/03 14:37:29;;;;;;;;;7.00;7.00;;;;;22.50;48.69;100895.47;4997505;28;45518;-54
2022/06/03 14:40:04;;;;;;;;;7.75;7.75;;;;;22.49;48.88;100888.53;5006194;28;45383;-53
2022/06/03 14:42:32;;;;;;;;;7.25;7.25;;;;;22.50;49.20;100891.06;4997517;28;45408;-54
2022/06/03 14:45:00;;;;;;;;;8.00;8.00;;;;;22.52;48.86;100901.53;4997109;28;46083;-54
2022/06/03 14:47:31;;;;;;;;;10.00;7.75;;;;;22.50;49.49;100899.00;4997072;28;46168;-56
2022/06/03 14:50:03;;;;;;;;;7.50;7.50;;;;;22.50;49.17;100900.78;5001105;28;45474;-55
2022/06/03 14:52:53;;;;;;;;;8.00;8.00;;;;;22.51;49.16;100911.25;5003218;28;45435;-53
2022/06/03 14:55:29;;;;;;;;;7.25;7.25;;;;;22.53;49.21;100904.09;5015556;28;47139;-52
2022/06/03 14:58:19;;;;;;;;;7.00;7.00;;;;;22.57;49.55;100898.59;5016846;28;45340;-56
2022/06/03 15:00:53;;;;;;;;;8.25;8.25;;;;;22.55;49.16;100894.25;5016791;28;45339;-51
2022/06/03 15:03:29;;;;;;;;;8.50;7.00;;;;;22.57;49.70;100885.38;5017260;28;45495;-55
2022/06/03 15:05:57;;;;;;;;;7.00;7.00;;;;;22.57;49.40;100882.75;5016550;28;45975;-53
2022/06/03 15:08:28;;;;;;;;;8.25;8.25;;;;;22.57;49.84;100885.38;5009495;28;45768;-53
2022/06/03 15:11:37;;;;;;;;;8.00;7.00;;;;;22.58;49.74;100887.09;5006936;28;45423;-51
2022/06/03 15:14:23;;;;;;;;;7.75;7.75;;;;;22.56;50.24;100889.84;4966546;28;45910;-56
2022/06/03 15:16:56;;;;;;;;;10.00;8.00;;;;;22.54;50.21;100892.56;4977434;28;45329;-55
2022/06/03 15:19:50;;;;;;;;;7.75;7.25;;;;;22.53;49.79;100896.16;4977265;28;45479;-53
2022/06/03 15:22:30;;;;;;;;;9.50;6.50;;;;;22.52;50.05;100904.16;4976851;28;45312;-52
2022/06/03 15:24:58;;;;;;;;;6.00;6.00;;;;;22.53;49.44;100909.38;4977276;28;45344;-53
2022/06/03 15:27:36;;;;;;;;;8.00;6.25;;;;;22.54;49.52;100918.13;4977268;28;45424;-53
2022/06/03 15:30:09;;;;;;;;;6.75;6.00;;;;;22.54;49.65;100915.50;4976956;28;45812;-53
2022/06/03 15:32:38;;;;;;;;;9.00;7.50;;;;;22.53;49.59;100914.66;4976901;28;45273;-52
2022/06/03 15:35:05;;;;;;;;;8.00;7.50;;;;;22.53;49.98;100922.59;4977186;28;45774;-55
2022/06/03 15:37:31;;;;;;;;;6.75;6.75;;;;;22.51;49.63;100924.47;4975367;28;46290;-53
2022/06/03 15:39:58;;;;;;;;;6.25;5.75;;;;;22.52;49.72;100920.88;4976750;28;45351;-57
2022/06/03 15:42:26;;;;;;;;;8.25;7.00;;;;;22.53;49.67;100927.00;4977199;28;45246;-55
2022/06/03 15:44:52;;;;;;;;;6.00;6.00;;;;;22.52;49.95;100920.00;4999725;28;45355;-56
2022/06/03 15:47:23;;;;;;;;;10.00;7.00;;;;;22.52;49.75;100915.59;4998747;28;45433;-52
2022/06/03 15:50:12;;;;;;;;;6.00;6.00;;;;;22.52;49.81;100920.00;4995894;28;45716;-53
2022/06/03 15:52:46;;;;;;;;;10.00;8.00;;;;;22.51;49.66;100913.03;4992787;28;45332;-54
2022/06/03 15:55:13;;;;;;;;;10.50;8.25;;;;;22.54;49.61;100918.13;4996336;28;45352;-54
2022/06/03 15:57:50;;;;;;;;;10.25;8.50;;;;;22.54;49.84;100918.97;4995874;28;47385;-55
2022/06/03 16:00:21;;;;;;;;;7.00;7.00;;;;;22.55;49.78;100925.94;4996165;28;45229;-54
2022/06/03 16:02:54;;;;;;;;;6.50;6.50;;;;;22.57;49.80;100927.66;4996189;28;45337;-56
2022/06/03 16:05:27;;;;;;;;;8.75;7.50;;;;;22.58;49.92;100934.63;4996277;28;45406;-55
2022/06/03 16:08:18;;;;;;;;;5.25;5.25;;;;;22.59;50.22;100925.75;4996337;28;45277;-57
2022/06/03 16:10:56;;;;;;;;;8.00;6.00;;;;;22.60;49.80;100916.91;5011025;28;45463;-55
2022/06/03 16:13:29;;;;;;;;;6.00;6.00;;;;;22.61;50.28;100924.72;4996429;28;45710;-53
2022/06/03 16:16:20;;;;;;;;;6.00;5.75;;;;;22.63;50.27;100920.19;4996529;28;45333;-51
2022/06/03 16:18:57;;;;;;;;;7.75;6.75;;;;;22.64;50.10;100911.31;4995848;28;46110;-51
2022/06/03 16:21:28;;;;;;;;;7.75;6.00;;;;;22.63;49.78;100906.16;4995972;28;45905;-56
2022/06/03 16:24:15;;;;;;;;;8.75;6.75;;;;;22.65;49.54;100912.19;4996341;28;45325;-55
2022/06/03 16:26:46;;;;;;;;;6.25;6.25;;;;;22.66;49.96;100906.78;5005043;28;45398;-55
2022/06/03 16:29:37;;;;;;;;;7.50;7.00;;;;;22.68;49.71;100902.28;5017722;28;46190;-55
2022/06/03 16:32:15;;;;;;;;;8.00;8.00;;;;;22.69;49.83;100905.75;5034329;28;45367;-52
2022/06/03 16:35:00;;;;;;;;;7.00;7.00;;;;;22.69;49.50;100906.63;5006777;28;45475;-55
2022/06/03 16:37:44;;;;;;;;;9.25;8.25;;;;;22.71;49.38;100901.22;5007006;28;45443;-53
2022/06/03 16:40:17;;;;;;;;;6.00;6.00;;;;;22.72;49.46;100897.63;4999091;28;46297;-53
2022/06/03 16:43:12;;;;;;;;;9.50;7.00;;;;;22.74;49.13;100897.53;4997769;28;45368;-53
2022/06/03 16:46:07;;;;;;;;;6.75;5.75;;;;;22.76;49.48;100901.78;5006613;28;45355;-52
2022/06/03 16:48:38;;;;;;;;;6.25;6.25;;;;;22.75;49.06;100905.38;5006298;28;45521;-55
2022/06/03 16:51:12;;;;;;;;;10.50;7.50;;;;;22.76;49.13;100895.63;5007536;28;45345;-58
2022/06/03 16:53:39;;;;;;;;;7.25;7.25;;;;;22.77;49.34;100902.63;4996057;28;45230;-57
2022/06/03 16:56:05;;;;;;;;;6.00;6.00;;;;;22.78;49.09;100906.97;5019811;28;45669;-54
2022/06/03 16:58:31;;;;;;;;;6.00;6.00;;;;;22.79;49.26;100900.72;5006498;28;45577;-57
2022/06/03 17:00:59;;;;;;;;;9.50;7.00;;;;;22.79;48.98;100903.38;5008699;28;46092;-57
2022/06/03 17:03:30;;;;;;;;;6.25;5.75;;;;;22.78;49.21;100899.88;5007664;28;45458;-57
2022/06/03 17:06:01;;;;;;;;;7.50;6.00;;;;;22.79;49.03;100906.84;5006739;28;45501;-57
2022/06/03 17:08:36;;;;;;;;;7.25;7.25;;;;;22.80;48.84;100905.06;5008327;28;45232;-58
2022/06/03 17:11:08;;;;;;;;;6.00;5.25;;;;;22.77;48.83;100902.63;4977665;28;46003;-59
2022/06/03 17:13:36;;;;;;;;;6.00;6.00;;;;;22.78;48.35;100909.59;4978827;28;45862;-58
2022/06/03 17:16:01;;;;;;;;;6.50;6.50;;;;;22.80;48.56;100907.72;4978594;28;45445;-58
2022/06/03 17:18:29;;;;;;;;;6.00;6.00;;;;;22.81;48.50;100909.41;4979021;28;45182;-60
2022/06/03 17:21:09;;;;;;;;;7.25;6.00;;;;;22.81;48.39;100904.13;4978293;28;46177;-58
2022/06/03 17:24:07;;;;;;;;;7.00;7.00;;;;;22.80;48.51;100907.72;4976409;28;45439;-58
2022/06/03 17:26:54;;;;;;;;;9.00;6.75;;;;;22.81;48.51;100909.41;4962282;28;45385;-59
2022/06/03 17:30:04;;;;;;;;;8.50;6.50;;;;;22.80;48.30;100908.56;4978701;28;45356;-59